Accueil
METAR-TAF:

METAR-TAF

Aéroports :

Burgos, Espagne

Aéroport de Burgos

latitude: 42-22N, longitude: 003-38W, altitude: 894 m

Observation

Le bulletin a été fait il y a 32 minutes, à 22:00 UTC
Vent 7 kt de nord/nord-est
Température -1°C
Humidité 86%
Pression 1020 hPa
Visibilité 10 km ou plus

METAR: LEBG 272200Z AUTO 03007KT 9999 NCD M01/M03 Q1020

Heure: 00:32 (22:32 UTC)

Prévision

Le bulletin a été fait il y a 5 heures et 32 minutes, à 17:00 UTC
Prévision valable du 27 à 18 UTC au 28 à 03 UTC
Vent 13 kt de nord/nord-est
Visibilité 10 km ou plus
Nuages fragmentés à une hauteur de 4500 ft

TAF: LEBG 271700Z 2718/2803 03013KT 9999 BKN045

Observations et prévisions météorologiques de plus de 4000 aéroports (messages METAR et TAF).

Les stations disponibles sont représentées par des disques jaunes et rouges sur la carte.

Passer la souris dessus pour voir le nom de la station.

Cliquer dessus pour voir les observations et prévisions météorologiques.

Pour changer de carte: cliquez sur les boutons verts avec une croix noire pour zoomer, sur le bouton vert avec un tiret pour effectuer un zoom arrière, ou sur les flèches vertes pour les cartes adjacentes.


METAR-TAF: